Richville, Utah
Current Conditions -  °F | °C
As of 8:38 PM on Saturday 22 Nov 2014 (Local Time) from KHIF Reporting Station
Broken Clouds Broken Clouds  
Wind Chill: 28°   Ceiling: 2900
Heat Index: 36°   Visibility: 10mi
Dew Point: 36°   Wind: 10mph
Humidity: 100%   Direction: 170°S
Pressure: 29.88"   Gusts: NA
Location:  41.0884°N, 111.576°W
Report Text: KHIF 230338Z AUTO 17009KT 10SM FEW019 BKN029 BKN039 02/02 A2988 RMK AO2
Loading
Personal Weather Stations






























Interactive Weather Map New forecast layout! Learn more

10-Day Weather Forecast

Advertisements
Track Severe Weather on mobile